الصفحة الرئيسية
METAR-TAF:

METAR-TAF

مطار :

Pago Pago, جزر الولايات المتحدة البعيدة الصغيرة

دائرة عرض: 14-20S, خط طول: 170-43W, ارتفاع: 3 متر

مراقبة الطقس الحالي

تاريخ ووقت الإصدار 28 دقيقة قبل الساعة 16:50UTC
ريح 10 عقدة من الشرق/الجنوب الشرقي
درجة الحرارة 28°درجة مئوية
الرطوبة 89%
ضغط 1011 hPa
الرؤية: 16.1 كم
غيوم قليلة على ارتفاع 2000 قدم
غيوم متفرقة على ارتفاع 4000 قدم
غيوم مفككة على ارتفاع 10000 قدم
ملبد بالغيوم على ارتفاع 20000 قدم

METAR: NSTU 221650Z 12010KT 10SM FEW020 SCT040 BKN100 OVC200 28/26 A2985 RMK SLP108 T02800259

زمن: 06:18 (17:18 UTC)

توقعات

تاريخ ووقت الإصدار 5ساعات و 48 دقيقة قبل الساعة 11:30UTC
التوقعات صالحة من22 الساعة 12 UTC إلى 23 الساعة 12 UTC
ريح 11 عقدة من الشرق/الجنوب الشرقي
الرؤية: 10 كم
غيوم متفرقة على ارتفاع 1800 قدم, مزنة ركامية.
غيوم مفككة على ارتفاع 4000 قدم
ملبد بالغيوم على ارتفاع 10000 قدم
عاصفة رعدية بالجوار

TAF: NSTU 221130Z 2212/2312 11011KT P6SM VCTS SCT018CB BKN040 OVC100

أرصاد الطقس والتوقعات من أكثر من 4000 مطار (تقارير الطقس للمطار METAR والتنبؤ بالطقس بالمطارTAF).

المحطات المتاحة هي النقط الصفراء والحمراء على الخريطة.

حرك المؤشر فوق النقطة لمعرفة اسم المحطة.

ثم انقر لمعرفة أرصاد وتوقعات الطقس.

لتغيير الخارطة: اضغط على الأزرار الخضراء مع رمز الصليب الأسود للتكبير. على الزر الأخضر مع شرطة للتصغير، أو على الأسهم الخضراء للخرائط المجاورة.


METAR-TAF: